Time;durP1;ratioP1;P1;durP2;ratioP2;P2;SDS_P1;SDS_P2;PMS_P1;PMS_P2;Temp;Humidity;BMP_temperature;BMP_pressure;BME280_temperature;BME280_humidity;BME280_pressure;Samples;Min_cycle;Max_cycle;Signal;HPM_P1;HPM_P2
2023/05/28 00:01:34;;;;;;;;;;;11.60;99.90;;;;;;5036617;28;19925;-87
2023/05/28 00:03:59;;;;;;;;;;;11.40;99.90;;;;;;5034967;28;19975;-88
2023/05/28 00:06:30;;;;;;;;;;;11.90;99.90;;;;;;5035782;28;19967;-88
2023/05/28 00:08:58;;;;;;;;;;;9.90;99.90;;;;;;5035052;28;20277;-88
2023/05/28 00:11:25;;;;;;;;;;;11.90;99.90;;;;;;5019777;28;19925;-88
2023/05/28 00:13:51;;;;;;;;;;;11.30;99.90;;;;;;5030690;28;20011;-88
2023/05/28 00:16:33;;;;;;;;;;;11.30;99.90;;;;;;5019760;28;20015;-88
2023/05/28 00:18:59;;;;;;;;;;;10.10;99.90;;;;;;5018228;28;20294;-88
2023/05/28 00:21:42;;;;;;;;;;;11.30;99.90;;;;;;5028593;28;19925;-88
2023/05/28 00:24:08;;;;;;;;;;;9.90;99.90;;;;;;5017405;28;19925;-89
2023/05/28 00:26:34;;;;;;;;;;;11.60;99.90;;;;;;5022407;28;19932;-88
2023/05/28 00:29:09;;;;;;;;;;;11.60;99.90;;;;;;5018991;28;19925;-88
2023/05/28 00:31:37;;;;;;;;;;;11.30;99.90;;;;;;5018874;28;19931;-90
2023/05/28 00:34:03;;;;;;;;;;;11.60;99.90;;;;;;5035080;28;19931;-88
2023/05/28 00:36:29;;;;;;;;;;;11.30;99.90;;;;;;5034077;28;19924;-88
2023/05/28 00:38:55;;;;;;;;;;;11.50;99.90;;;;;;5026786;28;19925;-87
2023/05/28 00:41:22;;;;;;;;;;;11.80;99.90;;;;;;5025525;28;19925;-88
2023/05/28 00:43:51;;;;;;;;;;;10.50;99.90;;;;;;5034294;28;19960;-88
2023/05/28 00:46:21;;;;;;;;;;;9.50;99.90;;;;;;5019407;28;20287;-88
2023/05/28 00:48:47;;;;;;;;;;;11.70;99.90;;;;;;5019309;28;19954;-87
2023/05/28 00:51:15;;;;;;;;;;;11.30;99.90;;;;;;5023497;28;19925;-89
2023/05/28 00:56:27;;;;;;;;;;;9.60;99.90;;;;;;5048338;28;19939;-88
2023/05/28 00:59:05;;;;;;;;;;;;;;;;;;;;;
2023/05/28 01:01:31;;;;;;;;;;;11.40;99.90;;;;;;5058043;28;19972;-88
2023/05/28 01:03:58;;;;;;;;;;;11.50;99.90;;;;;;5043203;28;19924;-87
2023/05/28 01:06:29;;;;;;;;;;;11.40;99.90;;;;;;5056753;28;19936;-88
2023/05/28 01:08:56;;;;;;;;;;;9.60;99.90;;;;;;5044903;28;19976;-87
2023/05/28 01:11:23;;;;;;;;;;;11.30;99.90;;;;;;5044285;28;19913;-87
2023/05/28 01:13:52;;;;;;;;;;;11.40;99.90;;;;;;5062318;28;19928;-89
2023/05/28 01:16:28;;;;;;;;;;;11.30;99.90;;;;;;5039983;28;20290;-87
2023/05/28 01:18:55;;;;;;;;;;;11.30;99.90;;;;;;5040761;28;19971;-89
2023/05/28 01:21:22;;;;;;;;;;;11.30;99.90;;;;;;5023677;28;20012;-89
2023/05/28 01:23:48;;;;;;;;;;;11.70;99.90;;;;;;5022560;28;19924;-87
2023/05/28 01:26:14;;;;;;;;;;;12.20;99.90;;;;;;5022413;28;20325;-87
2023/05/28 01:28:51;;;;;;;;;;;11.50;99.90;;;;;;5024241;28;19932;-88
2023/05/28 01:31:24;;;;;;;;;;;11.90;99.90;;;;;;5023683;28;19952;-88
2023/05/28 01:33:53;;;;;;;;;;;11.20;99.90;;;;;;5002460;28;20260;-88
2023/05/28 01:36:31;;;;;;;;;;;11.20;99.90;;;;;;5035597;28;19979;-88
2023/05/28 01:39:00;;;;;;;;;;;11.20;99.90;;;;;;5021936;28;20289;-87
2023/05/28 01:41:29;;;;;;;;;;;11.40;99.90;;;;;;5038305;28;20011;-88
2023/05/28 01:43:57;;;;;;;;;;;11.90;99.90;;;;;;5021818;28;20374;-87
2023/05/28 01:46:26;;;;;;;;;;;11.20;99.90;;;;;;5021981;28;19928;-87
2023/05/28 01:48:52;;;;;;;;;;;11.20;99.90;;;;;;5037528;28;19975;-87
2023/05/28 01:51:21;;;;;;;;;;;11.40;99.90;;;;;;5031466;28;19968;-87
2023/05/28 01:53:52;;;;;;;;;;;11.60;99.90;;;;;;5021583;28;19951;-88
2023/05/28 01:56:21;;;;;;;;;;;11.20;99.90;;;;;;5037577;28;19974;-87
2023/05/28 01:58:48;;;;;;;;;;;13.70;99.90;;;;;;5038105;28;19925;-87
2023/05/28 02:01:29;;;;;;;;;;;11.20;99.90;;;;;;5043244;28;20329;-87
2023/05/28 02:03:55;;;;;;;;;;;11.20;99.90;;;;;;5038178;28;19932;-87
2023/05/28 02:06:27;;;;;;;;;;;12.00;99.90;;;;;;5024799;28;19940;-88
2023/05/28 02:08:58;;;;;;;;;;;11.70;99.90;;;;;;5008476;28;19940;-88
2023/05/28 02:11:26;;;;;;;;;;;11.30;99.90;;;;;;5037908;28;19925;-88
2023/05/28 02:13:57;;;;;;;;;;;11.60;99.90;;;;;;5037742;28;19924;-87
2023/05/28 02:16:25;;;;;;;;;;;11.40;99.90;;;;;;5006937;28;19924;-87
2023/05/28 02:18:51;;;;;;;;;;;11.50;99.90;;;;;;5019022;28;20325;-87
2023/05/28 02:21:26;;;;;;;;;;;11.90;99.90;;;;;;5018228;28;20379;-88
2023/05/28 02:23:52;;;;;;;;;;;11.20;99.90;;;;;;5021206;28;20019;-88
2023/05/28 02:26:18;;;;;;;;;;;11.40;99.90;;;;;;5037566;28;19964;-88
2023/05/28 02:28:46;;;;;;;;;;;11.50;99.90;;;;;;5035766;28;19925;-88
2023/05/28 02:31:12;;;;;;;;;;;11.40;99.90;;;;;;5020961;28;19925;-88
2023/05/28 02:33:41;;;;;;;;;;;11.30;99.90;;;;;;5004150;28;19979;-88
2023/05/28 02:36:12;;;;;;;;;;;11.50;99.90;;;;;;5027503;28;19935;-87
2023/05/28 02:38:43;;;;;;;;;;;11.20;99.90;;;;;;5036834;28;20362;-87
2023/05/28 02:41:18;;;;;;;;;;;11.10;99.90;;;;;;5037454;28;20001;-88
2023/05/28 02:43:44;;;;;;;;;;;9.80;99.90;;;;;;5020629;28;19933;-87
2023/05/28 02:46:10;;;;;;;;;;;11.40;99.90;;;;;;5020872;28;19928;-87
2023/05/28 02:48:44;;;;;;;;;;;11.10;99.90;;;;;;5020129;28;20024;-88
2023/05/28 02:51:10;;;;;;;;;;;11.00;99.90;;;;;;5005664;28;20301;-87
2023/05/28 02:53:48;;;;;;;;;;;11.00;99.90;;;;;;5020711;28;19931;-88
2023/05/28 02:56:14;;;;;;;;;;;11.30;99.90;;;;;;5027615;28;19971;-88
2023/05/28 02:58:45;;;;;;;;;;;11.10;99.90;;;;;;5021071;28;19948;-87
2023/05/28 03:01:13;;;;;;;;;;;11.10;99.90;;;;;;5006533;28;19940;-88
2023/05/28 03:03:39;;;;;;;;;;;11.00;99.90;;;;;;5020030;28;20228;-88
2023/05/28 03:06:07;;;;;;;;;;;11.00;99.90;;;;;;5037131;28;20051;-87
2023/05/28 03:08:34;;;;;;;;;;;11.40;99.90;;;;;;5019718;28;19931;-87
2023/05/28 03:11:00;;;;;;;;;;;11.60;99.90;;;;;;5011160;28;19933;-87
2023/05/28 03:13:43;;;;;;;;;;;11.10;99.90;;;;;;5014978;28;19929;-87
2023/05/28 03:16:09;;;;;;;;;;;11.10;99.90;;;;;;5020453;28;20343;-88
2023/05/28 03:18:37;;;;;;;;;;;11.10;99.90;;;;;;5008847;28;19993;-87
2023/05/28 03:21:06;;;;;;;;;;;9.60;99.90;;;;;;5035955;28;20390;-88
2023/05/28 03:23:52;;;;;;;;;;;11.10;99.90;;;;;;5036272;28;19925;-87
2023/05/28 03:26:38;;;;;;;;;;;11.10;99.90;;;;;;5030860;28;19925;-87
2023/05/28 03:29:06;;;;;;;;;;;11.30;99.90;;;;;;5009158;28;19924;-87
2023/05/28 03:31:45;;;;;;;;;;;11.00;99.90;;;;;;5027493;28;20066;-87
2023/05/28 03:34:14;;;;;;;;;;;11.00;99.90;;;;;;5019593;28;19925;-87
2023/05/28 03:36:50;;;;;;;;;;;10.30;99.90;;;;;;5019340;28;20326;-87
2023/05/28 03:39:18;;;;;;;;;;;11.00;99.90;;;;;;5035961;28;19925;-87
2023/05/28 03:41:44;;;;;;;;;;;11.10;99.90;;;;;;5034485;28;20337;-88
2023/05/28 03:44:10;;;;;;;;;;;11.00;99.90;;;;;;5035758;28;19924;-87
2023/05/28 03:46:38;;;;;;;;;;;10.90;99.90;;;;;;5009193;28;19925;-87
2023/05/28 03:49:04;;;;;;;;;;;11.30;99.90;;;;;;5018533;28;19978;-87
2023/05/28 03:51:33;;;;;;;;;;;11.50;99.90;;;;;;5035311;28;19925;-88
2023/05/28 03:54:06;;;;;;;;;;;10.90;99.90;;;;;;5035769;28;19924;-87
2023/05/28 03:56:34;;;;;;;;;;;11.10;99.90;;;;;;5018867;28;19929;-88
2023/05/28 03:59:09;;;;;;;;;;;9.50;99.90;;;;;;5016089;28;19925;-87
2023/05/28 04:01:37;;;;;;;;;;;10.80;99.90;;;;;;5026277;28;19970;-88
2023/05/28 04:04:03;;;;;;;;;;;10.90;99.90;;;;;;5019311;28;19929;-87
2023/05/28 04:06:32;;;;;;;;;;;11.10;99.90;;;;;;5035916;28;19925;-87
2023/05/28 04:09:01;;;;;;;;;;;10.90;99.90;;;;;;5035035;28;19925;-89
2023/05/28 04:11:29;;;;;;;;;;;11.20;99.90;;;;;;5015202;28;19925;-86
2023/05/28 04:14:00;;;;;;;;;;;11.00;99.90;;;;;;5032191;28;19990;-88
2023/05/28 04:16:28;;;;;;;;;;;11.10;99.90;;;;;;5027249;28;19932;-87
2023/05/28 04:18:54;;;;;;;;;;;10.90;99.90;;;;;;5034570;28;19960;-87
2023/05/28 04:21:23;;;;;;;;;;;11.10;99.90;;;;;;5025321;28;20398;-87
2023/05/28 04:23:51;;;;;;;;;;;10.90;99.90;;;;;;5019561;28;19925;-88
2023/05/28 04:26:22;;;;;;;;;;;11.40;99.90;;;;;;5032899;28;19928;-88
2023/05/28 04:28:50;;;;;;;;;;;11.10;99.90;;;;;;5033614;28;21365;-87
2023/05/28 04:31:16;;;;;;;;;;;11.00;99.90;;;;;;5037671;28;19929;-87
2023/05/28 04:33:47;;;;;;;;;;;11.30;99.90;;;;;;5035038;28;19987;-88
2023/05/28 04:36:13;;;;;;;;;;;11.00;99.90;;;;;;5020326;28;19929;-87
2023/05/28 04:38:46;;;;;;;;;;;11.00;99.90;;;;;;5022192;28;19925;-87
2023/05/28 04:41:14;;;;;;;;;;;11.30;99.90;;;;;;5036472;28;20263;-87
2023/05/28 04:43:44;;;;;;;;;;;11.00;99.90;;;;;;5022617;28;19964;-87
2023/05/28 04:46:13;;;;;;;;;;;11.20;99.90;;;;;;5039436;28;19925;-88
2023/05/28 04:48:41;;;;;;;;;;;11.20;99.90;;;;;;5022326;28;19929;-87
2023/05/28 04:51:09;;;;;;;;;;;11.50;99.90;;;;;;5018252;28;19928;-87
2023/05/28 04:53:42;;;;;;;;;;;11.30;99.90;;;;;;5034700;28;19929;-87
2023/05/28 04:56:08;;;;;;;;;;;11.40;99.90;;;;;;5022345;28;20285;-87
2023/05/28 04:58:36;;;;;;;;;;;12.60;99.90;;;;;;5039013;28;19932;-87
2023/05/28 05:01:08;;;;;;;;;;;11.90;99.90;;;;;;5023043;28;19924;-87
2023/05/28 05:03:36;;;;;;;;;;;11.90;99.90;;;;;;5039001;28;19933;-87
2023/05/28 05:06:02;;;;;;;;;;;11.60;99.90;;;;;;5022551;28;19970;-87
2023/05/28 05:08:28;;;;;;;;;;;14.40;99.90;;;;;;5022342;28;19925;-87
2023/05/28 05:10:54;;;;;;;;;;;11.60;99.90;;;;;;5028591;28;19931;-87
2023/05/28 05:13:20;;;;;;;;;;;11.80;99.90;;;;;;5011858;28;19925;-87
2023/05/28 05:15:54;;;;;;;;;;;12.00;99.90;;;;;;5032654;28;20450;-87
2023/05/28 05:18:27;;;;;;;;;;;11.90;99.90;;;;;;5036742;28;20047;-88
2023/05/28 05:20:55;;;;;;;;;;;11.70;99.90;;;;;;5020980;28;19925;-88
2023/05/28 05:23:23;;;;;;;;;;;11.70;99.90;;;;;;5017052;28;19932;-88
2023/05/28 05:25:51;;;;;;;;;;;11.80;99.90;;;;;;5004825;28;19932;-87
2023/05/28 05:28:20;;;;;;;;;;;11.70;99.90;;;;;;5018322;28;19924;-88
2023/05/28 05:30:51;;;;;;;;;;;11.70;99.90;;;;;;5017900;28;19924;-87
2023/05/28 05:33:17;;;;;;;;;;;9.80;99.90;;;;;;5019128;28;20397;-89
2023/05/28 05:35:45;;;;;;;;;;;11.80;99.90;;;;;;5019541;28;19928;-87
2023/05/28 05:38:13;;;;;;;;;;;14.40;99.90;;;;;;5024650;28;20274;-87
2023/05/28 05:40:41;;;;;;;;;;;12.10;99.90;;;;;;5036335;28;19976;-88
2023/05/28 05:43:09;;;;;;;;;;;12.20;99.90;;;;;;5016816;28;19929;-87
2023/05/28 05:45:35;;;;;;;;;;;12.30;99.90;;;;;;5017884;28;19925;-88
2023/05/28 05:48:00;;;;;;;;;;;12.20;99.90;;;;;;5013673;28;19925;-86
2023/05/28 05:50:29;;;;;;;;;;;12.20;99.90;;;;;;5019010;28;19936;-87
2023/05/28 05:53:02;;;;;;;;;;;12.60;99.90;;;;;;5013143;28;19976;-90
2023/05/28 05:55:28;;;;;;;;;;;12.90;99.90;;;;;;5018994;28;19925;-88
2023/05/28 05:58:01;;;;;;;;;;;12.30;99.90;;;;;;5004618;28;19968;-87
2023/05/28 06:00:29;;;;;;;;;;;11.00;99.90;;;;;;5036894;28;19924;-88
2023/05/28 06:02:56;;;;;;;;;;;12.90;99.90;;;;;;5020029;28;19931;-88
2023/05/28 06:05:42;;;;;;;;;;;12.60;99.90;;;;;;5023475;28;20286;-87
2023/05/28 06:08:10;;;;;;;;;;;12.80;99.90;;;;;;5034250;28;20019;-87
2023/05/28 06:10:36;;;;;;;;;;;12.80;99.90;;;;;;5030928;28;19925;-86
2023/05/28 06:13:04;;;;;;;;;;;11.20;99.90;;;;;;5019791;28;20016;-88
2023/05/28 06:15:31;;;;;;;;;;;11.60;99.90;;;;;;5027483;28;20375;-87
2023/05/28 06:17:58;;;;;;;;;;;13.00;99.90;;;;;;5033866;28;20429;-88
2023/05/28 06:20:23;;;;;;;;;;;13.60;99.90;;;;;;5037096;28;19925;-87
2023/05/28 06:22:52;;;;;;;;;;;13.60;99.90;;;;;;5020401;28;20444;-87
2023/05/28 06:25:28;;;;;;;;;;;;;;;;;;;;;
2023/05/28 06:27:57;;;;;;;;;;;13.20;99.90;;;;;;5029581;28;19935;-87
2023/05/28 06:30:30;;;;;;;;;;;16.00;99.90;;;;;;5029848;28;19925;-88
2023/05/28 06:33:03;;;;;;;;;;;13.40;99.90;;;;;;5018685;28;19924;-88
2023/05/28 06:35:29;;;;;;;;;;;13.40;99.90;;;;;;4994120;28;20016;-86
2023/05/28 06:38:12;;;;;;;;;;;13.80;99.90;;;;;;5031231;28;20031;-87
2023/05/28 06:40:43;;;;;;;;;;;13.70;99.90;;;;;;5013465;28;19931;-87
2023/05/28 06:43:09;;;;;;;;;;;13.60;99.90;;;;;;5032828;28;19970;-86
2023/05/28 06:45:35;;;;;;;;;;;13.60;99.90;;;;;;5019108;28;19929;-88
2023/05/28 06:48:03;;;;;;;;;;;13.90;99.90;;;;;;5014840;28;20386;-86
2023/05/28 06:50:28;;;;;;;;;;;13.80;99.90;;;;;;5035664;28;19971;-85
2023/05/28 06:52:56;;;;;;;;;;;13.90;99.90;;;;;;5026295;28;19968;-87
2023/05/28 06:55:26;;;;;;;;;;;11.90;99.90;;;;;;5036641;28;20377;-88
2023/05/28 06:57:52;;;;;;;;;;;12.30;99.90;;;;;;5029313;28;19925;-89
2023/05/28 07:00:17;;;;;;;;;;;14.30;99.90;;;;;;5017070;28;19925;-85
2023/05/28 07:02:46;;;;;;;;;;;14.10;99.90;;;;;;5034260;28;20403;-85
2023/05/28 07:05:12;;;;;;;;;;;13.90;99.90;;;;;;5017898;28;19925;-86
2023/05/28 07:07:43;;;;;;;;;;;14.00;99.90;;;;;;5029737;28;19931;-89
2023/05/28 07:10:09;;;;;;;;;;;14.30;99.90;;;;;;5023996;28;19925;-87
2023/05/28 07:12:40;;;;;;;;;;;14.10;99.90;;;;;;5035976;28;20004;-87
2023/05/28 07:15:15;;;;;;;;;;;15.00;99.90;;;;;;5008398;28;19932;-86
2023/05/28 07:17:43;;;;;;;;;;;14.90;99.90;;;;;;5023005;28;19932;-86
2023/05/28 07:20:16;;;;;;;;;;;14.10;99.90;;;;;;5019552;28;19964;-86
2023/05/28 07:22:42;;;;;;;;;;;14.10;99.90;;;;;;5003972;28;20025;-89
2023/05/28 07:25:11;;;;;;;;;;;12.20;99.90;;;;;;5012593;28;20084;-86
2023/05/28 07:27:36;;;;;;;;;;;13.60;99.90;;;;;;5004600;28;19929;-86
2023/05/28 07:30:02;;;;;;;;;;;14.30;99.90;;;;;;4999534;28;19925;-87
2023/05/28 07:32:30;;;;;;;;;;;12.80;99.90;;;;;;5030783;28;20035;-87
2023/05/28 07:34:59;;;;;;;;;;;14.20;99.90;;;;;;5033368;28;19929;-86
2023/05/28 07:37:25;;;;;;;;;;;14.40;99.90;;;;;;5032520;28;20044;-86
2023/05/28 07:39:56;;;;;;;;;;;14.50;99.90;;;;;;5027152;28;19932;-87
2023/05/28 07:42:22;;;;;;;;;;;14.40;99.90;;;;;;5019885;28;20008;-87
2023/05/28 07:44:50;;;;;;;;;;;14.40;99.90;;;;;;5019413;28;20336;-87
2023/05/28 07:47:18;;;;;;;;;;;14.40;99.90;;;;;;5019292;28;20062;-87
2023/05/28 07:49:52;;;;;;;;;;;14.50;99.90;;;;;;5019425;28;20012;-88
2023/05/28 07:52:23;;;;;;;;;;;14.80;99.90;;;;;;5043795;28;20279;-88
2023/05/28 07:54:49;;;;;;;;;;;13.00;99.90;;;;;;5030105;28;19925;-85
2023/05/28 07:57:20;;;;;;;;;;;14.70;99.90;;;;;;5028754;28;19925;-87
2023/05/28 07:59:45;;;;;;;;;;;14.70;99.90;;;;;;5029176;28;19940;-88
2023/05/28 08:02:16;;;;;;;;;;;14.80;99.90;;;;;;4992294;28;19925;-88
2023/05/28 08:04:41;;;;;;;;;;;14.80;99.90;;;;;;5010391;28;19933;-87
2023/05/28 08:07:09;;;;;;;;;;;15.20;99.90;;;;;;5021861;28;20016;-88
2023/05/28 08:09:36;;;;;;;;;;;14.90;99.90;;;;;;5029761;28;19924;-86
2023/05/28 08:12:01;;;;;;;;;;;15.60;99.90;;;;;;5030519;28;19925;-86
2023/05/28 08:14:27;;;;;;;;;;;15.10;99.90;;;;;;5015145;28;19932;-88
2023/05/28 08:16:53;;;;;;;;;;;15.20;99.90;;;;;;5014159;28;20011;-85
2023/05/28 08:19:19;;;;;;;;;;;15.20;99.90;;;;;;5014157;28;19931;-87
2023/05/28 08:21:45;;;;;;;;;;;15.50;99.90;;;;;;5028015;28;20260;-87
2023/05/28 08:24:11;;;;;;;;;;;15.60;99.90;;;;;;5033929;28;19932;-89
2023/05/28 08:26:39;;;;;;;;;;;15.50;99.90;;;;;;5029353;28;20007;-87
2023/05/28 08:29:04;;;;;;;;;;;15.30;99.90;;;;;;5012346;28;20067;-87
2023/05/28 08:31:33;;;;;;;;;;;15.50;99.90;;;;;;5030336;28;19940;-87
2023/05/28 08:33:58;;;;;;;;;;;15.50;99.90;;;;;;5023675;28;19925;-87
2023/05/28 08:36:26;;;;;;;;;;;15.70;99.90;;;;;;5035445;28;20232;-88
2023/05/28 08:38:52;;;;;;;;;;;15.60;99.90;;;;;;5034760;28;20390;-88
2023/05/28 08:41:21;;;;;;;;;;;15.70;99.90;;;;;;4997285;28;19971;-87
2023/05/28 08:43:47;;;;;;;;;;;16.00;99.90;;;;;;5034843;28;19935;-88
2023/05/28 08:46:13;;;;;;;;;;;16.20;99.90;;;;;;5005827;28;20015;-85
2023/05/28 08:48:40;;;;;;;;;;;16.10;99.90;;;;;;5017440;28;19929;-86
2023/05/28 08:51:08;;;;;;;;;;;14.70;98.20;;;;;;5018304;28;19940;-87
2023/05/28 08:53:45;;;;;;;;;;;16.00;99.90;;;;;;5034862;28;19932;-86
2023/05/28 08:56:11;;;;;;;;;;;16.00;98.30;;;;;;5020295;28;19931;-87
2023/05/28 08:58:50;;;;;;;;;;;;;;;;;;;;;
2023/05/28 09:01:16;;;;;;;;;;;16.30;98.50;;;;;;5011523;28;19925;-87
2023/05/28 09:03:41;;;;;;;;;;;16.70;99.90;;;;;;5017042;28;19936;-86
2023/05/28 09:06:07;;;;;;;;;;;16.50;99.90;;;;;;5026959;28;19932;-88
2023/05/28 09:08:40;;;;;;;;;;;16.50;99.50;;;;;;5015434;28;20325;-87
2023/05/28 09:11:22;;;;;;;;;;;18.40;99.90;;;;;;5022445;28;19948;-89
2023/05/28 09:13:48;;;;;;;;;;;16.90;98.30;;;;;;5026807;28;19925;-87
2023/05/28 09:16:45;;;;;;;;;;;16.90;98.50;;;;;;5019921;28;20264;-88
2023/05/28 09:19:14;;;;;;;;;;;16.70;98.50;;;;;;5036782;28;19924;-88
2023/05/28 09:21:51;;;;;;;;;;;17.10;96.70;;;;;;5020503;28;19925;-87
2023/05/28 09:24:18;;;;;;;;;;;17.10;96.60;;;;;;5029393;28;19936;-87
2023/05/28 09:26:51;;;;;;;;;;;17.50;96.20;;;;;;5036092;28;20331;-88
2023/05/28 09:29:22;;;;;;;;;;;17.10;97.20;;;;;;5037292;28;19999;-88
2023/05/28 09:32:03;;;;;;;;;;;17.20;98.00;;;;;;5030950;28;19925;-86
2023/05/28 09:34:40;;;;;;;;;;;17.40;97.10;;;;;;5027991;28;19925;-88
2023/05/28 09:37:09;;;;;;;;;;;17.70;97.20;;;;;;5004921;28;19925;-88
2023/05/28 09:39:37;;;;;;;;;;;17.90;99.90;;;;;;5024639;28;19952;-88
2023/05/28 09:42:09;;;;;;;;;;;17.70;97.90;;;;;;5029478;28;19925;-88
2023/05/28 09:44:43;;;;;;;;;;;17.80;96.10;;;;;;5028548;28;19948;-88
2023/05/28 09:47:18;;;;;;;;;;;17.90;96.40;;;;;;5035520;28;19925;-87
2023/05/28 09:49:54;;;;;;;;;;;18.10;94.80;;;;;;5025050;28;19991;-89
2023/05/28 09:52:23;;;;;;;;;;;17.70;95.40;;;;;;5026692;28;19925;-85
2023/05/28 09:54:53;;;;;;;;;;;17.80;94.80;;;;;;5035413;28;19929;-88
2023/05/28 09:57:39;;;;;;;;;;;17.80;94.30;;;;;;5031472;28;19925;-88
2023/05/28 10:00:13;;;;;;;;;;;18.20;95.40;;;;;;5029346;28;19975;-87
2023/05/28 10:02:58;;;;;;;;;;;18.10;93.00;;;;;;5014101;28;19925;-88
2023/05/28 10:05:28;;;;;;;;;;;18.10;92.60;;;;;;5033074;28;19995;-88
2023/05/28 10:07:58;;;;;;;;;;;18.20;90.50;;;;;;5031216;28;20333;-86
2023/05/28 10:10:25;;;;;;;;;;;18.30;90.40;;;;;;5030566;28;19932;-84
2023/05/28 10:12:53;;;;;;;;;;;18.30;86.00;;;;;;5013440;28;19925;-89
2023/05/28 10:15:19;;;;;;;;;;;18.30;88.70;;;;;;5034279;28;20003;-86
2023/05/28 10:17:45;;;;;;;;;;;18.40;88.80;;;;;;5033935;28;20063;-87
2023/05/28 10:20:14;;;;;;;;;;;18.50;87.60;;;;;;5028329;28;19971;-87
2023/05/28 10:22:40;;;;;;;;;;;18.60;89.00;;;;;;5016069;28;19931;-90
2023/05/28 10:25:10;;;;;;;;;;;19.00;87.10;;;;;;5035547;28;19931;-87
2023/05/28 10:27:37;;;;;;;;;;;18.90;83.10;;;;;;5020014;28;20035;-87
2023/05/28 10:30:04;;;;;;;;;;;18.80;84.20;;;;;;5020247;28;20401;-86
2023/05/28 10:32:32;;;;;;;;;;;19.00;80.60;;;;;;5018032;28;20416;-87
2023/05/28 10:35:04;;;;;;;;;;;19.20;80.10;;;;;;5035822;28;20261;-88
2023/05/28 10:37:34;;;;;;;;;;;19.00;78.50;;;;;;5033949;28;19971;-86
2023/05/28 10:40:00;;;;;;;;;;;19.00;77.60;;;;;;5035561;28;19924;-87
2023/05/28 10:42:26;;;;;;;;;;;19.20;77.10;;;;;;5025312;28;19932;-87
2023/05/28 10:45:14;;;;;;;;;;;19.10;77.90;;;;;;5020647;28;19925;-86
2023/05/28 10:47:41;;;;;;;;;;;19.20;76.20;;;;;;5020666;28;20254;-87
2023/05/28 10:50:17;;;;;;;;;;;19.30;71.60;;;;;;5036485;28;19929;-87
2023/05/28 10:53:02;;;;;;;;;;;21.50;72.90;;;;;;5019157;28;20374;-88
2023/05/28 10:55:27;;;;;;;;;;;19.30;72.20;;;;;;5017326;28;19925;-86
2023/05/28 10:58:07;;;;;;;;;;;20.70;73.60;;;;;;5023903;28;19925;-89
2023/05/28 11:00:42;;;;;;;;;;;19.90;69.50;;;;;;5018840;28;19987;-87
2023/05/28 11:03:15;;;;;;;;;;;19.50;69.00;;;;;;5036470;28;19960;-88
2023/05/28 11:05:44;;;;;;;;;;;19.60;72.00;;;;;;5036503;28;20011;-89
2023/05/28 11:08:12;;;;;;;;;;;19.50;73.70;;;;;;5016713;28;19972;-88
2023/05/28 11:10:40;;;;;;;;;;;18.80;77.30;;;;;;5023053;28;19929;-88
2023/05/28 11:13:09;;;;;;;;;;;19.80;73.70;;;;;;5027812;28;19935;-87
2023/05/28 11:15:39;;;;;;;;;;;20.10;74.20;;;;;;5003533;28;19925;-87
2023/05/28 11:18:07;;;;;;;;;;;21.80;74.70;;;;;;5014397;28;19925;-88
2023/05/28 11:20:33;;;;;;;;;;;19.90;76.00;;;;;;5009666;28;20035;-89
2023/05/28 11:22:59;;;;;;;;;;;20.30;77.50;;;;;;5020227;28;19956;-88
2023/05/28 11:25:30;;;;;;;;;;;20.10;75.70;;;;;;5019931;28;20008;-86
2023/05/28 11:28:02;;;;;;;;;;;20.10;72.20;;;;;;5020625;28;19925;-89
2023/05/28 11:30:33;;;;;;;;;;;19.90;75.10;;;;;;5036243;28;19925;-86
2023/05/28 11:33:01;;;;;;;;;;;20.00;76.20;;;;;;5033277;28;19929;-86
2023/05/28 11:35:30;;;;;;;;;;;19.10;75.90;;;;;;5018800;28;19928;-87
2023/05/28 11:37:59;;;;;;;;;;;20.40;79.70;;;;;;5035798;28;19929;-88
2023/05/28 11:40:34;;;;;;;;;;;20.10;78.10;;;;;;5019522;28;19924;-85
2023/05/28 11:43:00;;;;;;;;;;;20.20;77.60;;;;;;5019325;28;19939;-86
2023/05/28 11:45:26;;;;;;;;;;;20.30;79.40;;;;;;5035684;28;19928;-86
2023/05/28 11:47:54;;;;;;;;;;;20.30;79.30;;;;;;5019595;28;19925;-88
2023/05/28 11:50:24;;;;;;;;;;;20.20;82.40;;;;;;5019006;28;19925;-89
2023/05/28 11:52:50;;;;;;;;;;;20.10;82.00;;;;;;5036025;28;19925;-85
2023/05/28 11:55:16;;;;;;;;;;;20.40;84.10;;;;;;5018012;28;19928;-86
2023/05/28 11:57:58;;;;;;;;;;;20.10;80.90;;;;;;5026899;28;19925;-87
2023/05/28 12:00:52;;;;;;;;;;;20.20;81.80;;;;;;5035946;28;20323;-88
2023/05/28 12:03:20;;;;;;;;;;;20.00;83.60;;;;;;5026662;28;19952;-88
2023/05/28 12:05:48;;;;;;;;;;;20.00;87.50;;;;;;5033473;28;19937;-86
2023/05/28 12:08:19;;;;;;;;;;;20.20;86.60;;;;;;5014368;28;19925;-88
2023/05/28 12:10:48;;;;;;;;;;;20.10;86.30;;;;;;5008401;28;19947;-89
2023/05/28 12:13:17;;;;;;;;;;;19.70;89.40;;;;;;5032640;28;19968;-87
2023/05/28 12:15:45;;;;;;;;;;;20.10;87.30;;;;;;5021335;28;19925;-85
2023/05/28 12:18:30;;;;;;;;;;;20.20;88.20;;;;;;5026764;28;19970;-89
2023/05/28 12:21:01;;;;;;;;;;;18.30;88.00;;;;;;5036166;28;19933;-88
2023/05/28 12:23:30;;;;;;;;;;;20.30;90.80;;;;;;5035118;28;20378;-89
2023/05/28 12:26:03;;;;;;;;;;;20.50;91.20;;;;;;5019121;28;19925;-85
2023/05/28 12:28:38;;;;;;;;;;;20.30;90.80;;;;;;5035794;28;19925;-88
2023/05/28 12:31:07;;;;;;;;;;;19.90;90.90;;;;;;5001022;28;19969;-87
2023/05/28 12:33:35;;;;;;;;;;;20.30;91.30;;;;;;5012357;28;19925;-89
2023/05/28 12:36:01;;;;;;;;;;;20.40;92.00;;;;;;4990993;28;19968;-87
2023/05/28 12:38:27;;;;;;;;;;;20.20;92.80;;;;;;5035335;28;20386;-88
2023/05/28 12:40:57;;;;;;;;;;;20.20;94.10;;;;;;5019506;28;20046;-86
2023/05/28 12:43:23;;;;;;;;;;;20.30;94.70;;;;;;5032109;28;19925;-87
2023/05/28 12:45:49;;;;;;;;;;;20.20;94.20;;;;;;5035223;28;19958;-88
2023/05/28 12:48:17;;;;;;;;;;;20.30;93.60;;;;;;5018593;28;20046;-89
2023/05/28 12:50:43;;;;;;;;;;;20.30;93.70;;;;;;5009027;28;19948;-86
2023/05/28 12:53:16;;;;;;;;;;;20.20;95.10;;;;;;5019812;28;19925;-86
2023/05/28 12:55:42;;;;;;;;;;;20.40;93.60;;;;;;5022350;28;19976;-85
2023/05/28 12:58:10;;;;;;;;;;;20.20;92.20;;;;;;5038735;28;20006;-86
2023/05/28 13:00:39;;;;;;;;;;;20.00;93.30;;;;;;5039122;28;20015;-89
2023/05/28 13:03:14;;;;;;;;;;;20.00;94.50;;;;;;5039068;28;20313;-89
2023/05/28 13:05:49;;;;;;;;;;;19.90;94.50;;;;;;5025532;28;19925;-86
2023/05/28 13:08:18;;;;;;;;;;;20.10;95.00;;;;;;5022202;28;19932;-87
2023/05/28 13:10:44;;;;;;;;;;;20.00;93.80;;;;;;5038776;28;19925;-88
2023/05/28 13:13:10;;;;;;;;;;;19.30;94.40;;;;;;5034296;28;19932;-86
2023/05/28 13:15:38;;;;;;;;;;;19.90;94.10;;;;;;5022294;28;19967;-90
2023/05/28 13:18:09;;;;;;;;;;;19.80;94.80;;;;;;5022233;28;20436;-90
2023/05/28 13:20:40;;;;;;;;;;;20.80;93.60;;;;;;5019627;28;20359;-86
2023/05/28 13:23:06;;;;;;;;;;;20.10;94.10;;;;;;5021926;28;20025;-85
2023/05/28 13:25:39;;;;;;;;;;;19.90;94.10;;;;;;5022385;28;19971;-88
2023/05/28 13:28:05;;;;;;;;;;;20.00;95.20;;;;;;5038557;28;19924;-86
2023/05/28 13:30:33;;;;;;;;;;;19.90;94.60;;;;;;5021875;28;19924;-88
2023/05/28 13:33:01;;;;;;;;;;;20.20;94.00;;;;;;5038314;28;19950;-86
2023/05/28 13:35:27;;;;;;;;;;;20.20;92.60;;;;;;5021651;28;20326;-88
2023/05/28 13:37:55;;;;;;;;;;;19.80;92.80;;;;;;5038548;28;19952;-89
2023/05/28 13:40:23;;;;;;;;;;;19.40;93.90;;;;;;5034969;28;19932;-87
2023/05/28 13:42:49;;;;;;;;;;;19.70;94.50;;;;;;5016540;28;19924;-87
2023/05/28 13:45:15;;;;;;;;;;;20.10;94.40;;;;;;5054840;28;19998;-86
2023/05/28 13:47:41;;;;;;;;;;;19.90;93.40;;;;;;5038430;28;19933;-89
2023/05/28 13:50:07;;;;;;;;;;;19.90;93.20;;;;;;5012105;28;19928;-88
2023/05/28 13:52:35;;;;;;;;;;;19.70;93.80;;;;;;5021794;28;19928;-86
2023/05/28 13:55:03;;;;;;;;;;;19.80;93.40;;;;;;5032964;28;19987;-86
2023/05/28 13:57:33;;;;;;;;;;;19.80;94.00;;;;;;5004147;28;19929;-87
2023/05/28 14:00:06;;;;;;;;;;;20.00;91.80;;;;;;5032186;28;19925;-88
2023/05/28 14:02:40;;;;;;;;;;;19.90;92.30;;;;;;5042592;28;19933;-89
2023/05/28 14:05:08;;;;;;;;;;;20.30;91.50;;;;;;5011595;28;19929;-88
2023/05/28 14:07:36;;;;;;;;;;;20.10;91.40;;;;;;5040142;28;19970;-88
2023/05/28 14:10:05;;;;;;;;;;;19.90;92.10;;;;;;5022258;28;19931;-89
2023/05/28 14:12:31;;;;;;;;;;;20.00;90.60;;;;;;5021136;28;19925;-85
2023/05/28 14:14:57;;;;;;;;;;;20.00;91.20;;;;;;5017370;28;19925;-88
2023/05/28 14:17:25;;;;;;;;;;;20.00;92.00;;;;;;5022250;28;19924;-89
2023/05/28 14:19:51;;;;;;;;;;;20.00;91.80;;;;;;5038504;28;19932;-87
2023/05/28 14:22:16;;;;;;;;;;;19.90;91.00;;;;;;5018419;28;19964;-88
2023/05/28 14:24:42;;;;;;;;;;;19.90;91.90;;;;;;5037454;28;20389;-86
2023/05/28 14:27:09;;;;;;;;;;;19.80;90.60;;;;;;5038094;28;20422;-88
2023/05/28 14:29:35;;;;;;;;;;;19.80;91.40;;;;;;5020559;28;19931;-90
2023/05/28 14:32:01;;;;;;;;;;;19.80;91.90;;;;;;5037293;28;20293;-86
2023/05/28 14:34:27;;;;;;;;;;;19.80;91.10;;;;;;5029157;28;19983;-87
2023/05/28 14:36:53;;;;;;;;;;;19.80;90.50;;;;;;5013704;28;19925;-89